Weather forecast for Chervonyi Kut (Червоный Кут)

Ukraine, 146 m
N47.393, E30.455


Sounding

Red line — air temperature ˚C.
Blue line — thermal bubble temperature ˚C.
Green line — dew point temperature ˚C.
Wind speed is in meters per second.

Table forecast

GFS 0.25˚ model

temp. wind gust humid. clouds prec. press. hpbl
Sun21 00:00 -3 360.0 n 3 3 89 100 0.0 1012 66
03:00 -4 355.0 n 3 3 88 100 0.0 1012 62
06:00 -5 345.0 nnw 2 3 87 63 0.0 1013 21
09:00 -6 340.0 nnw 1 2 87 32 0.0 1013 21
12:00 -2 200.0 ssw 2 3 84 18 0.0 1015 160
15:00 -0 110.0 ese 2 2 86 46 0.0 1014 180
18:00 -3 120.0 ese 2 3 89 99 0.0 1015 21
21:00 -2 114.0 ese 3 5 89 100 0.0 1015 135
 
Mon22 00:00 -3 88.0 e 4 9 89 100 0.0 1014 167
03:00 -3 70.0 ene 5 9 89 99 0.0 1014 277
06:00 -3 64.0 ene 6 13 87 100 0.0 1013 363
09:00 -3 68.0 ene 6 12 85 100 0.0 1013 446
12:00 -1 56.0 ne 7 12 83 100 0.0 1013 575
15:00 -2 35.0 ne 8 14 87 100 0.6 1012 616
18:00 -2 29.0 nne 8 14 90 100 0.8 1013 670
21:00 -3 25.0 nne 9 15 90 100 1.7 1014 701
 
Tue23 00:00 -3 19.0 nne 9 15 89 100 0.4 1016 717
03:00 -4 12.0 nne 9 16 88 100 0.6 1017 682
06:00 -5 6.0 n 9 15 89 100 0.1 1018 662
09:00 -6 2.0 n 9 15 89 100 0.1 1020 656
12:00 -6 359.0 n 9 14 89 100 0.0 1022 643
15:00 -5 358.0 n 8 15 81 68 0.0 1023 666
18:00 -7 353.0 n 8 15 80 0 0.0 1026 520
21:00 -8 355.0 n 8 16 82 0 0.0 1028 504
 
Wed24 00:00 -8 350.0 n 8 15 85 0 0.0 1030 441
03:00 -8 344.0 nnw 7 15 87 0 0.0 1031 358
06:00 -9 343.0 nnw 7 13 87 0 0.0 1032 337
09:00 -10 341.0 nnw 6 13 86 0 0.0 1034 312
12:00 -7 345.0 nnw 7 12 82 0 0.0 1034 422
15:00 -5 343.0 nnw 7 12 82 0 0.0 1033 544
18:00 -7 341.0 nnw 6 13 85 0 0.0 1034 361
21:00 -9 349.0 n 6 12 88 0 0.0 1034 324
 
Thu25 00:00 -10 2.0 n 5 11 91 8 0.0 1033 335
03:00 -9 10.0 n 6 10 92 53 0.1 1032 430
06:00 -10 12.0 nne 5 9 92 91 0.2 1031 353
09:00 -10 9.0 n 5 9 93 60 0.2 1032 253
12:00 -6 29.0 nne 5 8 92 53 0.0 1032 431
15:00 -4 42.0 ne 4 6 90 70 0.1 1031 526
18:00 -5 30.0 nne 3 4 94 73 0.0 1032 72
21:00 -5 106.0 ese 3 5 93 73 0.1 1033 115
 

0.008 s